Time;durP1;ratioP1;P1;durP2;ratioP2;P2;SDS_P1;SDS_P2;PMS_P1;PMS_P2;Temp;Humidity;BMP_temperature;BMP_pressure;BME280_temperature;BME280_humidity;BME280_pressure;Samples;Min_cycle;Max_cycle;Signal;HPM_P1;HPM_P2
2024/01/20 00:01:59;;;;;;;8.93;3.90;;;;;;;0.09;100.00;102179.81;5000132;28;20060;-79
2024/01/20 00:04:26;;;;;;;7.35;3.33;;;;;;;0.10;100.00;102184.22;5044173;28;20060;-80
2024/01/20 00:06:54;;;;;;;4.90;3.30;;;;;;;0.10;100.00;102169.56;4980490;28;20521;-81
2024/01/20 00:09:22;;;;;;;13.02;3.53;;;;;;;0.11;100.00;102178.22;5022922;28;20056;-80
2024/01/20 00:12:00;;;;;;;5.15;3.05;;;;;;;0.12;100.00;102173.16;5021857;28;20049;-79
2024/01/20 00:14:28;;;;;;;15.50;3.83;;;;;;;0.13;100.00;102171.44;5023324;28;20049;-79
2024/01/20 00:16:55;;;;;;;8.85;3.45;;;;;;;0.15;100.00;102181.16;5000348;28;20050;-79
2024/01/20 00:19:32;;;;;;;10.77;3.80;;;;;;;0.18;100.00;102193.41;5019632;28;20045;-79
2024/01/20 00:22:00;;;;;;;11.30;4.88;;;;;;;0.20;100.00;102181.44;4974044;28;22033;-80
2024/01/20 00:24:29;;;;;;;7.03;3.55;;;;;;;0.21;100.00;102178.06;5036012;28;20041;-79
2024/01/20 00:26:56;;;;;;;12.63;3.85;;;;;;;0.23;100.00;102186.84;5018484;28;20064;-80
2024/01/20 00:29:24;;;;;;;7.55;3.80;;;;;;;0.25;100.00;102168.78;5018243;28;20096;-79
2024/01/20 00:31:51;;;;;;;9.55;4.38;;;;;;;0.26;100.00;102170.56;5021796;28;20571;-79
2024/01/20 00:34:19;;;;;;;9.80;3.75;;;;;;;0.26;100.00;102176.66;5000994;28;20049;-79
2024/01/20 00:36:46;;;;;;;9.90;4.50;;;;;;;0.24;100.00;102183.44;5009684;28;20067;-79
2024/01/20 00:39:14;;;;;;;11.48;3.97;;;;;;;0.23;100.00;102180.72;4980929;28;20046;-79
2024/01/20 00:41:42;;;;;;;8.70;4.13;;;;;;;0.21;100.00;102191.03;5032217;28;20057;-79
2024/01/20 00:44:10;;;;;;;9.32;4.05;;;;;;;0.19;100.00;102185.72;5022589;28;20041;-80
2024/01/20 00:46:38;;;;;;;12.80;3.80;;;;;;;0.15;100.00;102188.91;4994172;28;20045;-80
2024/01/20 00:49:05;;;;;;;8.68;4.40;;;;;;;0.11;100.00;102186.00;5008296;28;20029;-79
2024/01/20 00:51:33;;;;;;;10.50;4.57;;;;;;;0.08;100.00;102191.00;5012458;28;20048;-79
2024/01/20 00:54:00;;;;;;;11.65;4.95;;;;;;;0.02;100.00;102194.06;4982063;28;20046;-80
2024/01/20 00:56:28;;;;;;;9.65;4.45;;;;;;;-0.02;100.00;102202.41;5016320;28;20046;-79
2024/01/20 00:58:55;;;;;;;8.43;4.45;;;;;;;-0.05;100.00;102199.63;5032820;28;20105;-80
2024/01/20 01:01:23;;;;;;;13.27;4.95;;;;;;;-0.07;100.00;102196.94;5035739;28;20049;-79
2024/01/20 01:03:50;;;;;;;12.02;6.57;;;;;;;-0.10;100.00;102199.31;4999696;28;20060;-80
2024/01/20 01:06:18;;;;;;;13.20;5.00;;;;;;;-0.09;100.00;102195.03;5017445;28;20518;-79
2024/01/20 01:08:46;;;;;;;10.10;5.43;;;;;;;-0.13;100.00;102196.53;4985291;28;20381;-79
2024/01/20 01:11:13;;;;;;;11.82;6.50;;;;;;;-0.14;100.00;102199.00;4982610;28;20049;-80
2024/01/20 01:13:41;;;;;;;10.80;5.65;;;;;;;-0.14;100.00;102191.22;4999446;28;20465;-79
2024/01/20 01:16:09;;;;;;;7.05;5.90;;;;;;;-0.14;100.00;102199.91;5016135;28;20057;-79
2024/01/20 01:18:36;;;;;;;11.77;6.35;;;;;;;-0.14;100.00;102192.13;4997332;28;20050;-79
2024/01/20 01:21:04;;;;;;;14.45;6.78;;;;;;;-0.14;100.00;102205.06;4984999;28;20050;-79
2024/01/20 01:23:31;;;;;;;10.68;5.72;;;;;;;-0.14;100.00;102207.66;4977895;28;20041;-79
2024/01/20 01:25:59;;;;;;;12.45;6.88;;;;;;;-0.13;100.00;102208.56;4952818;28;20042;-79
2024/01/20 01:28:26;;;;;;;14.65;6.25;;;;;;;-0.13;100.00;102203.38;5020163;28;20404;-79
2024/01/20 01:30:53;;;;;;;9.52;6.28;;;;;;;-0.13;100.00;102203.38;5012250;28;20053;-78
2024/01/20 01:33:21;;;;;;;12.30;6.30;;;;;;;-0.12;100.00;102207.78;4980636;28;20042;-78
2024/01/20 01:35:50;;;;;;;12.85;6.38;;;;;;;-0.14;100.00;102210.25;4983879;28;20058;-79
2024/01/20 01:38:17;;;;;;;12.65;6.57;;;;;;;-0.14;100.00;102205.06;5008503;28;20414;-79
2024/01/20 01:40:45;;;;;;;10.35;5.90;;;;;;;-0.14;100.00;102214.56;4967957;28;20048;-81
2024/01/20 01:43:12;;;;;;;10.25;6.60;;;;;;;-0.14;100.00;102212.84;5019387;28;20398;-79
2024/01/20 01:45:40;;;;;;;10.73;6.38;;;;;;;-0.13;100.00;102213.75;4987062;28;20462;-79
2024/01/20 01:48:08;;;;;;;12.77;6.13;;;;;;;-0.14;100.00;102218.03;5006382;28;20525;-79
2024/01/20 01:50:36;;;;;;;10.27;6.50;;;;;;;-0.15;100.00;102218.84;5013008;28;20050;-80
2024/01/20 01:53:05;;;;;;;10.70;6.38;;;;;;;-0.15;100.00;102215.34;4974450;28;20053;-78
2024/01/20 01:55:34;;;;;;;15.18;7.22;;;;;;;-0.17;100.00;102215.25;5006266;28;20053;-79
2024/01/20 01:58:03;;;;;;;14.95;6.20;;;;;;;-0.20;100.00;102217.63;4981422;28;20061;-78
2024/01/20 02:00:30;;;;;;;12.70;5.75;;;;;;;-0.19;100.00;102227.16;4989543;28;20057;-78
2024/01/20 02:03:01;;;;;;;14.75;7.00;;;;;;;-0.20;100.00;102225.41;4969800;28;21135;-79
2024/01/20 02:05:29;;;;;;;21.92;7.47;;;;;;;-0.21;100.00;102218.41;4983704;28;20050;-78
2024/01/20 02:07:58;;;;;;;12.90;7.00;;;;;;;-0.21;100.00;102223.56;4988518;28;20056;-79
2024/01/20 02:10:26;;;;;;;13.10;6.35;;;;;;;-0.23;100.00;102226.09;5000079;28;20061;-79
2024/01/20 02:12:54;;;;;;;12.40;6.90;;;;;;;-0.23;100.00;102230.34;4994110;28;20542;-80
2024/01/20 02:15:21;;;;;;;14.25;7.53;;;;;;;-0.25;100.00;102216.41;5020348;28;20155;-79
2024/01/20 02:17:51;;;;;;;15.85;7.35;;;;;;;-0.26;100.00;102222.38;5006527;28;20052;-78
2024/01/20 02:20:19;;;;;;;13.18;6.88;;;;;;;-0.28;100.00;102213.63;5002855;28;20048;-79
2024/01/20 02:22:46;;;;;;;14.63;7.72;;;;;;;-0.29;100.00;102215.28;5002255;28;20053;-79
2024/01/20 02:25:14;;;;;;;16.33;7.43;;;;;;;-0.27;100.00;102221.47;4984488;28;20048;-79
2024/01/20 02:27:41;;;;;;;17.73;7.50;;;;;;;-0.26;100.00;102219.78;4956446;28;20043;-79
2024/01/20 02:30:09;;;;;;;14.90;7.45;;;;;;;-0.25;100.00;102216.41;5008452;28;20048;-79
2024/01/20 02:32:36;;;;;;;17.42;8.32;;;;;;;-0.24;100.00;102223.38;5008693;28;20041;-79
2024/01/20 02:35:04;;;;;;;13.32;7.18;;;;;;;-0.24;100.00;102224.28;5000227;28;20068;-79
2024/01/20 02:37:32;;;;;;;13.25;7.82;;;;;;;-0.21;100.00;102221.00;5008989;28;20914;-79
2024/01/20 02:39:59;;;;;;;17.67;7.60;;;;;;;-0.24;100.00;102229.47;5006860;28;20057;-79
2024/01/20 02:42:27;;;;;;;14.68;8.30;;;;;;;-0.25;100.00;102235.41;4997315;28;20046;-79
2024/01/20 02:44:54;;;;;;;13.98;8.27;;;;;;;-0.25;100.00;102237.13;5006217;28;20054;-79
2024/01/20 02:47:22;;;;;;;14.20;7.45;;;;;;;-0.29;100.00;102242.88;5027004;28;20045;-78
2024/01/20 02:49:49;;;;;;;19.33;7.95;;;;;;;-0.31;100.00;102237.59;4998890;28;20061;-79
2024/01/20 02:52:17;;;;;;;13.77;8.77;;;;;;;-0.33;100.00;102236.59;5008281;28;20050;-79
2024/01/20 02:54:44;;;;;;;15.57;8.70;;;;;;;-0.35;100.00;102242.47;4999044;28;20414;-78
2024/01/20 02:57:11;;;;;;;14.23;8.57;;;;;;;-0.37;100.00;102242.34;4999588;28;20045;-79
2024/01/20 02:59:39;;;;;;;18.00;8.77;;;;;;;-0.41;100.00;102246.41;4979074;28;20668;-79
2024/01/20 03:02:06;;;;;;;17.45;8.98;;;;;;;-0.42;100.00;102252.41;5012110;28;20056;-79
2024/01/20 03:04:34;;;;;;;18.60;9.98;;;;;;;-0.43;100.00;102249.72;5001062;28;20041;-79
2024/01/20 03:07:02;;;;;;;16.33;9.93;;;;;;;-0.46;100.00;102247.78;5028066;28;20466;-79
2024/01/20 03:09:29;;;;;;;16.00;9.50;;;;;;;-0.46;100.00;102255.53;4996885;28;20407;-78
2024/01/20 03:11:57;;;;;;;15.68;10.30;;;;;;;-0.49;100.00;102250.19;4987580;28;20049;-79
2024/01/20 03:14:24;;;;;;;17.38;10.05;;;;;;;-0.50;100.00;102253.53;4968236;28;20411;-79
2024/01/20 03:16:52;;;;;;;17.38;10.45;;;;;;;-0.53;100.00;102243.00;5001817;28;20068;-79
2024/01/20 03:19:19;;;;;;;17.58;10.63;;;;;;;-0.53;100.00;102255.00;5012725;28;20463;-79
2024/01/20 03:21:46;;;;;;;22.73;10.40;;;;;;;-0.57;100.00;102253.00;5019269;28;20490;-79
2024/01/20 03:24:17;;;;;;;15.85;11.07;;;;;;;-0.61;100.00;102254.47;5011866;28;20061;-78
2024/01/20 03:26:46;;;;;;;22.48;11.40;;;;;;;-0.65;100.00;102247.28;4998825;28;20053;-79
2024/01/20 03:29:14;;;;;;;20.10;11.80;;;;;;;-0.70;100.00;102259.91;5002902;28;20053;-79
2024/01/20 03:31:42;;;;;;;17.70;11.05;;;;;;;-0.75;100.00;102253.50;4965463;28;20052;-78
2024/01/20 03:34:09;;;;;;;15.98;11.57;;;;;;;-0.77;100.00;102256.78;5010707;28;20215;-79
2024/01/20 03:36:37;;;;;;;16.05;11.52;;;;;;;-0.80;100.00;102271.28;5005186;28;20556;-79
2024/01/20 03:39:05;;;;;;;24.17;12.85;;;;;;;-0.81;100.00;102269.50;4994000;28;20053;-79
2024/01/20 03:41:32;;;;;;;21.08;12.77;;;;;;;-0.81;100.00;102273.78;5000073;28;20046;-79
2024/01/20 03:44:00;;;;;;;21.65;12.98;;;;;;;-0.83;100.00;102277.94;5021273;28;20056;-79
2024/01/20 03:46:27;;;;;;;27.27;14.35;;;;;;;-0.84;100.00;102276.13;4964935;28;20045;-79
2024/01/20 03:48:55;;;;;;;22.27;14.20;;;;;;;-0.86;100.00;102281.19;4992958;28;20034;-79
2024/01/20 03:51:26;;;;;;;18.25;13.00;;;;;;;-0.89;100.00;102280.06;5018681;28;20434;-79
2024/01/20 03:53:54;;;;;;;24.45;15.75;;;;;;;-0.91;100.00;102277.34;5001335;28;20546;-79
2024/01/20 03:56:22;;;;;;;19.23;14.48;;;;;;;-0.91;100.00;102290.31;5017873;28;20520;-80
2024/01/20 03:58:49;;;;;;;22.92;15.05;;;;;;;-0.92;100.00;102290.22;4999820;28;20053;-79
2024/01/20 04:01:17;;;;;;;25.02;15.48;;;;;;;-0.93;100.00;102296.16;4982310;28;20057;-79
2024/01/20 04:03:45;;;;;;;25.65;15.90;;;;;;;-0.93;100.00;102293.56;4984888;28;20041;-79
2024/01/20 04:06:12;;;;;;;26.10;16.70;;;;;;;-0.95;100.00;102296.03;5009599;28;20056;-79
2024/01/20 04:08:40;;;;;;;26.55;15.82;;;;;;;-0.99;100.00;102294.91;4986466;28;20046;-78
2024/01/20 04:11:07;;;;;;;27.63;15.95;;;;;;;-1.00;100.00;102292.25;5010830;28;20056;-79
2024/01/20 04:13:34;;;;;;;22.35;16.35;;;;;;;-1.01;100.00;102303.38;5001961;28;20054;-79
2024/01/20 04:16:02;;;;;;;23.75;16.95;;;;;;;-1.02;100.00;102299.88;4995316;28;20049;-79
2024/01/20 04:18:29;;;;;;;27.52;17.17;;;;;;;-1.02;100.00;102297.31;4983827;28;20063;-79
2024/01/20 04:20:57;;;;;;;24.23;17.08;;;;;;;-1.00;100.00;102313.84;4999250;28;20526;-79
2024/01/20 04:23:24;;;;;;;22.55;16.30;;;;;;;-0.99;100.00;102301.78;4971592;28;20058;-79
2024/01/20 04:25:53;;;;;;;23.63;16.50;;;;;;;-0.97;100.00;102305.38;5005084;28;20049;-79
2024/01/20 04:28:20;;;;;;;26.23;17.38;;;;;;;-0.97;100.00;102305.38;5011867;28;20131;-79
2024/01/20 04:30:48;;;;;;;26.02;17.98;;;;;;;-0.96;100.00;102303.69;5018985;28;20046;-79
2024/01/20 04:33:15;;;;;;;23.73;17.33;;;;;;;-0.96;100.00;102303.69;4985431;28;20045;-79
2024/01/20 04:35:43;;;;;;;26.08;18.08;;;;;;;-0.96;100.00;102312.38;5027171;28;20080;-78
2024/01/20 04:38:10;;;;;;;22.35;15.95;;;;;;;-0.96;100.00;102303.69;5008057;28;20510;-79
2024/01/20 04:40:38;;;;;;;29.17;16.85;;;;;;;-0.96;100.00;102298.50;5024340;28;20056;-79
2024/01/20 04:43:05;;;;;;;32.35;18.40;;;;;;;-0.94;100.00;102315.09;5010179;28;20475;-79
2024/01/20 04:45:32;;;;;;;25.88;18.98;;;;;;;-0.94;100.00;102312.50;5002364;28;20346;-79
2024/01/20 04:48:01;;;;;;;31.45;18.63;;;;;;;-0.96;100.00;102316.63;5011021;28;20054;-78
2024/01/20 04:50:28;;;;;;;26.33;18.60;;;;;;;-1.00;100.00;102306.06;4979527;28;20068;-78
2024/01/20 04:52:56;;;;;;;29.50;19.70;;;;;;;-1.03;100.00;102311.00;5027706;28;20042;-79
2024/01/20 04:55:23;;;;;;;28.95;18.75;;;;;;;-1.04;100.00;102311.81;5011537;28;20046;-79
2024/01/20 04:57:51;;;;;;;30.30;19.27;;;;;;;-1.07;100.00;102319.34;5008786;28;20053;-79
2024/01/20 05:00:18;;;;;;;28.55;19.55;;;;;;;-1.10;100.00;102310.44;4999382;28;20042;-78
2024/01/20 05:02:46;;;;;;;26.73;18.65;;;;;;;-1.14;100.00;102318.78;4991320;28;20046;-79
2024/01/20 05:05:13;;;;;;;28.42;19.42;;;;;;;-1.18;100.00;102323.72;4963057;28;20058;-79
2024/01/20 05:07:41;;;;;;;29.90;20.70;;;;;;;-1.20;100.00;102320.13;5016993;28;20050;-79
2024/01/20 05:10:08;;;;;;;30.25;21.08;;;;;;;-1.22;100.00;102329.44;5001238;28;20403;-80
2024/01/20 05:12:36;;;;;;;34.40;20.40;;;;;;;-1.23;100.00;102329.31;5007708;28;20124;-79
2024/01/20 05:15:10;;;;;;;31.73;20.38;;;;;;;-1.26;100.00;102331.72;4984999;28;20064;-79
2024/01/20 05:17:39;;;;;;;27.10;19.67;;;;;;;-1.28;100.00;102329.00;5008068;28;20636;-78
2024/01/20 05:20:06;;;;;;;28.85;21.23;;;;;;;-1.28;100.00;102330.69;4977994;28;20045;-79
2024/01/20 05:22:34;;;;;;;28.05;20.90;;;;;;;-1.29;100.00;102329.78;5000651;28;20141;-79
2024/01/20 05:25:03;;;;;;;30.70;19.38;;;;;;;-1.30;100.00;102332.28;5010987;28;20049;-79
2024/01/20 05:27:30;;;;;;;33.50;20.52;;;;;;;-1.32;100.00;102329.56;4980514;28;20056;-79
2024/01/20 05:29:58;;;;;;;35.97;21.67;;;;;;;-1.34;100.00;102331.13;5008728;28;20053;-78
2024/01/20 05:32:26;;;;;;;31.25;22.30;;;;;;;-1.35;100.00;102333.59;4997762;28;20037;-79
2024/01/20 05:34:53;;;;;;;35.35;21.60;;;;;;;-1.37;100.00;102343.81;5025908;28;20053;-78
2024/01/20 05:37:21;;;;;;;37.42;21.42;;;;;;;-1.38;100.00;102334.25;4973484;28;20277;-79
2024/01/20 05:39:50;;;;;;;35.25;21.35;;;;;;;-1.39;100.00;102337.63;5004671;28;20061;-78
2024/01/20 05:42:18;;;;;;;32.63;21.80;;;;;;;-1.40;100.00;102338.41;5014977;28;20053;-78
2024/01/20 05:44:45;;;;;;;32.45;21.52;;;;;;;-1.42;100.00;102332.22;5002958;28;20049;-79
2024/01/20 05:47:12;;;;;;;37.38;22.42;;;;;;;-1.43;100.00;102338.19;5016036;28;20064;-79
2024/01/20 05:49:40;;;;;;;31.05;21.90;;;;;;;-1.44;100.00;102349.31;5007797;28;20055;-79
2024/01/20 05:52:07;;;;;;;35.95;23.00;;;;;;;-1.45;100.00;102348.41;4963063;28;20411;-79
2024/01/20 05:54:35;;;;;;;43.25;22.52;;;;;;;-1.46;100.00;102348.28;4997885;28;20046;-79
2024/01/20 05:57:02;;;;;;;44.25;22.70;;;;;;;-1.47;100.00;102352.56;4989505;28;20525;-79
2024/01/20 05:59:30;;;;;;;32.38;20.85;;;;;;;-1.48;100.00;102353.34;5009655;28;20076;-79
2024/01/20 06:01:57;;;;;;;30.38;22.88;;;;;;;-1.49;100.00;102356.72;4994880;28;20403;-79
2024/01/20 06:04:25;;;;;;;37.45;23.38;;;;;;;-1.50;100.00;102348.84;4991395;28;20041;-79
2024/01/20 06:06:53;;;;;;;34.92;21.80;;;;;;;-1.52;100.00;102363.34;4978869;28;20068;-78
2024/01/20 06:09:20;;;;;;;37.03;24.52;;;;;;;-1.53;100.00;102356.38;4999930;28;20045;-79
2024/01/20 06:11:48;;;;;;;35.95;24.08;;;;;;;-1.57;100.00;102357.81;4991761;28;20088;-79
2024/01/20 06:14:16;;;;;;;37.92;23.45;;;;;;;-1.59;100.00;102370.66;5023993;28;20084;-78
2024/01/20 06:16:43;;;;;;;47.92;24.92;;;;;;;-1.59;100.00;102364.53;5003436;28;20042;-79
2024/01/20 06:19:11;;;;;;;39.50;24.92;;;;;;;-1.62;100.00;102367.81;5003179;28;20050;-79
2024/01/20 06:21:38;;;;;;;34.97;22.67;;;;;;;-1.62;100.00;102370.41;4980706;28;20045;-78
2024/01/20 06:24:06;;;;;;;40.40;24.80;;;;;;;-1.63;100.00;102373.75;5000788;28;20053;-78
2024/01/20 06:26:34;;;;;;;40.55;24.73;;;;;;;-1.64;100.00;102376.25;5026482;28;20076;-78
2024/01/20 06:29:02;;;;;;;41.70;26.10;;;;;;;-1.66;100.00;102375.22;4998039;28;20065;-78
2024/01/20 06:31:29;;;;;;;43.42;24.83;;;;;;;-1.67;100.00;102379.47;5008096;28;20045;-79
2024/01/20 06:33:57;;;;;;;35.25;22.85;;;;;;;-1.69;100.00;102383.63;4999845;28;20045;-78
2024/01/20 06:36:25;;;;;;;36.90;24.65;;;;;;;-1.72;100.00;102377.31;4981564;28;20060;-79
2024/01/20 06:38:53;;;;;;;36.80;24.45;;;;;;;-1.72;100.00;102388.56;5010404;28;20426;-79
2024/01/20 06:41:21;;;;;;;37.90;24.88;;;;;;;-1.74;100.00;102390.13;5006047;28;20045;-79
2024/01/20 06:43:48;;;;;;;41.60;24.13;;;;;;;-1.74;100.00;102397.88;5004279;28;20065;-79
2024/01/20 06:46:16;;;;;;;40.25;24.50;;;;;;;-1.76;100.00;102396.84;5010078;28;20060;-79
2024/01/20 06:48:43;;;;;;;43.40;24.20;;;;;;;-1.78;100.00;102393.25;5001744;28;20049;-79
2024/01/20 06:51:14;;;;;;;45.22;26.35;;;;;;;-1.78;100.00;102398.41;4999158;28;20041;-78
2024/01/20 06:53:43;;;;;;;43.83;23.83;;;;;;;-1.81;100.00;102405.94;4966740;28;20491;-78
2024/01/20 06:56:11;;;;;;;46.85;26.33;;;;;;;-1.81;100.00;102411.13;5022139;28;20057;-79
2024/01/20 06:58:39;;;;;;;47.38;25.73;;;;;;;-1.84;100.00;102400.53;5028582;28;20052;-79
2024/01/20 07:01:06;;;;;;;41.50;25.02;;;;;;;-1.86;100.00;102405.56;5001761;28;20049;-79
2024/01/20 07:03:36;;;;;;;45.30;26.10;;;;;;;-1.87;100.00;102411.53;4987319;28;20414;-78
2024/01/20 07:06:05;;;;;;;47.10;26.75;;;;;;;-1.88;100.00;102406.25;4993004;28;20053;-79
2024/01/20 07:08:33;;;;;;;46.70;24.52;;;;;;;-1.90;100.00;102415.56;4999865;28;20057;-79
2024/01/20 07:11:00;;;;;;;44.20;24.77;;;;;;;-1.90;100.00;102415.56;5016790;28;20771;-79
2024/01/20 07:13:27;;;;;;;50.95;26.33;;;;;;;-1.90;100.00;102408.69;4993479;28;20477;-78
2024/01/20 07:15:55;;;;;;;49.90;25.30;;;;;;;-1.88;100.00;102406.25;5019090;28;20068;-78
2024/01/20 07:18:23;;;;;;;42.25;24.05;;;;;;;-1.89;100.00;102410.53;5003329;28;20049;-79
2024/01/20 07:20:52;;;;;;;45.60;26.50;;;;;;;-1.88;100.00;102416.59;4985241;28;20056;-79
2024/01/20 07:23:20;;;;;;;44.72;25.17;;;;;;;-1.87;100.00;102418.38;5029209;28;20052;-79
2024/01/20 07:25:47;;;;;;;50.03;26.05;;;;;;;-1.88;100.00;102429.50;4969780;28;20046;-79
2024/01/20 07:28:14;;;;;;;48.63;25.48;;;;;;;-1.90;100.00;102418.16;5023906;28;21126;-79
2024/01/20 07:30:42;;;;;;;43.83;24.52;;;;;;;-1.91;100.00;102425.00;5038085;28;20050;-79
2024/01/20 07:33:09;;;;;;;47.58;25.25;;;;;;;-1.90;100.00;102423.31;4977498;28;20049;-79
2024/01/20 07:35:37;;;;;;;46.88;26.10;;;;;;;-1.90;100.00;102433.66;4996173;28;20054;-78
2024/01/20 07:38:04;;;;;;;48.50;25.38;;;;;;;-1.93;100.00;102426.53;5006206;28;20044;-79
2024/01/20 07:40:32;;;;;;;51.83;24.85;;;;;;;-1.92;100.00;102435.22;4976027;28;20082;-79
2024/01/20 07:42:59;;;;;;;48.47;24.48;;;;;;;-1.90;100.00;102428.47;4992177;28;20593;-78
2024/01/20 07:45:27;;;;;;;49.38;25.60;;;;;;;-1.88;100.00;102437.25;4997712;28;20057;-78
2024/01/20 07:47:54;;;;;;;41.63;24.15;;;;;;;-1.89;100.00;102440.59;5002451;28;20057;-79
2024/01/20 07:50:22;;;;;;;47.47;25.20;;;;;;;-1.86;100.00;102435.69;4996921;28;20046;-78
2024/01/20 07:52:49;;;;;;;49.95;25.77;;;;;;;-1.84;100.00;102437.59;5003252;28;20053;-78
2024/01/20 07:55:17;;;;;;;47.53;25.13;;;;;;;-1.81;100.00;102447.28;4980072;28;23141;-79
2024/01/20 07:57:44;;;;;;;44.85;24.15;;;;;;;-1.79;100.00;102443.16;5019146;28;20061;-80
2024/01/20 08:00:12;;;;;;;48.72;24.80;;;;;;;-1.77;100.00;102450.22;4975323;28;20079;-79
2024/01/20 08:02:40;;;;;;;49.88;25.45;;;;;;;-1.73;100.00;102453.06;4993218;28;20075;-79
2024/01/20 08:05:07;;;;;;;47.58;25.52;;;;;;;-1.72;100.00;102450.63;4984007;28;20426;-79
2024/01/20 08:07:35;;;;;;;46.53;24.30;;;;;;;-1.69;100.00;102457.69;5018380;28;20517;-79
2024/01/20 08:10:03;;;;;;;49.30;24.10;;;;;;;-1.66;100.00;102464.00;5010798;28;20056;-79
2024/01/20 08:12:31;;;;;;;43.15;25.27;;;;;;;-1.64;100.00;102454.69;4982297;28;20056;-79
2024/01/20 08:14:58;;;;;;;43.08;22.95;;;;;;;-1.61;100.00;102460.09;4992105;28;20037;-80
2024/01/20 08:17:25;;;;;;;51.28;23.30;;;;;;;-1.57;100.00;102467.31;5019346;28;20596;-79
2024/01/20 08:19:53;;;;;;;41.20;23.77;;;;;;;-1.52;100.00;102472.84;4984159;28;20057;-79
2024/01/20 08:22:21;;;;;;;43.13;22.73;;;;;;;-1.46;100.00;102459.47;4987318;28;20084;-79
2024/01/20 08:24:48;;;;;;;38.83;22.48;;;;;;;-1.41;100.00;102466.81;5008166;28;20056;-79
2024/01/20 08:27:15;;;;;;;41.08;22.58;;;;;;;-1.33;100.00;102461.34;4992458;28;20851;-79
2024/01/20 08:29:43;;;;;;;34.83;21.27;;;;;;;-1.27;100.00;102460.09;5004557;28;20049;-79
2024/01/20 08:32:10;;;;;;;39.28;22.33;;;;;;;-1.19;100.00;102459.03;4998919;28;20057;-80
2024/01/20 08:34:38;;;;;;;40.60;22.40;;;;;;;-1.09;100.00;102460.63;4984856;28;20411;-79
2024/01/20 08:37:05;;;;;;;38.58;21.95;;;;;;;-1.00;100.00;102465.63;5006355;28;20053;-79
2024/01/20 08:39:33;;;;;;;44.17;21.23;;;;;;;-0.91;100.00;102479.22;5018439;28;20388;-80
2024/01/20 08:42:00;;;;;;;40.80;21.17;;;;;;;-0.82;100.00;102476.44;5008623;28;20064;-80
2024/01/20 08:44:28;;;;;;;44.28;21.90;;;;;;;-0.73;100.00;102481.44;4955154;28;20076;-79
2024/01/20 08:46:55;;;;;;;38.92;23.17;;;;;;;-0.66;100.00;102488.84;4982271;28;20049;-80
2024/01/20 08:49:23;;;;;;;43.33;21.48;;;;;;;-0.61;100.00;102482.31;4994275;28;20057;-79
2024/01/20 08:51:51;;;;;;;38.33;21.13;;;;;;;-0.55;100.00;102479.28;4988450;28;20509;-79
2024/01/20 08:54:18;;;;;;;37.95;21.92;;;;;;;-0.51;100.00;102486.50;4999976;28;20060;-79
2024/01/20 08:56:47;;;;;;;37.25;21.77;;;;;;;-0.46;100.00;102487.75;5006755;28;20517;-79
2024/01/20 08:59:15;;;;;;;36.88;21.73;;;;;;;-0.42;100.00;102488.09;4963151;28;20064;-79
2024/01/20 09:01:42;;;;;;;37.75;22.00;;;;;;;-0.39;100.00;102492.59;4999485;28;20060;-79
2024/01/20 09:04:10;;;;;;;36.90;20.33;;;;;;;-0.36;100.00;102504.88;5006022;28;20049;-80
2024/01/20 09:06:38;;;;;;;38.92;22.85;;;;;;;-0.33;100.00;102497.34;4999382;28;20057;-79
2024/01/20 09:09:05;;;;;;;35.08;20.58;;;;;;;-0.31;100.00;102500.94;5008504;28;20061;-79
2024/01/20 09:11:33;;;;;;;41.63;23.27;;;;;;;-0.28;100.00;102503.75;4983844;28;20045;-79
2024/01/20 09:14:01;;;;;;;37.30;20.98;;;;;;;-0.26;100.00;102509.94;5007995;28;20466;-79
2024/01/20 09:16:29;;;;;;;35.88;21.70;;;;;;;-0.23;100.00;102515.34;4992001;28;20049;-79
2024/01/20 09:18:56;;;;;;;41.28;21.85;;;;;;;-0.19;100.00;102519.97;5000641;28;20064;-80
2024/01/20 09:21:24;;;;;;;39.00;22.48;;;;;;;-0.15;100.00;102519.41;5023217;28;20038;-79
2024/01/20 09:23:52;;;;;;;40.15;22.20;;;;;;;-0.14;100.00;102536.75;4979430;28;20750;-79
2024/01/20 09:26:19;;;;;;;38.90;22.42;;;;;;;-0.12;100.00;102532.56;5019995;28;20068;-79
2024/01/20 09:28:46;;;;;;;42.72;21.63;;;;;;;-0.09;100.00;102534.53;5006595;28;20052;-80
2024/01/20 09:31:14;;;;;;;45.78;22.75;;;;;;;-0.07;100.00;102539.00;4987943;28;20045;-79
2024/01/20 09:33:45;;;;;;;40.10;23.00;;;;;;;-0.04;100.00;102531.47;5005431;28;20125;-79
2024/01/20 09:36:12;;;;;;;33.95;20.48;;;;;;;-0.03;100.00;102541.03;5018684;28;20060;-79
2024/01/20 09:38:40;;;;;;;38.65;21.98;;;;;;;-0.02;100.00;102529.91;4992889;28;20052;-79
2024/01/20 09:41:09;;;;;;;38.92;21.20;;;;;;;-0.01;100.00;102529.09;4997965;28;20060;-80
2024/01/20 09:43:39;;;;;;;38.08;22.15;;;;;;;0.00;100.00;102542.97;5003793;28;20046;-80
2024/01/20 09:46:07;;;;;;;43.70;23.10;;;;;;;0.01;100.00;102554.22;4980202;28;20069;-80
2024/01/20 09:48:35;;;;;;;42.78;22.58;;;;;;;0.04;100.00;102562.22;5002209;28;20053;-79
2024/01/20 09:51:02;;;;;;;38.28;20.90;;;;;;;0.07;100.00;102555.56;4988392;28;20143;-80
2024/01/20 09:53:30;;;;;;;39.47;22.15;;;;;;;0.11;100.00;102567.06;5008242;28;20498;-80
2024/01/20 09:55:57;;;;;;;38.17;20.55;;;;;;;0.12;100.00;102561.09;5023649;28;20052;-80
2024/01/20 09:58:27;;;;;;;36.70;21.45;;;;;;;0.14;100.00;102567.28;5000969;28;20061;-79
2024/01/20 10:00:56;;;;;;;38.13;21.88;;;;;;;0.14;100.00;102569.88;5002217;28;20053;-80
2024/01/20 10:03:25;;;;;;;31.98;20.60;;;;;;;0.15;100.00;102572.59;4993846;28;20053;-78
2024/01/20 10:05:53;;;;;;;36.40;20.73;;;;;;;0.18;100.00;102572.81;4984867;28;20049;-79
2024/01/20 10:08:20;;;;;;;32.47;21.58;;;;;;;0.20;100.00;102570.34;5007402;28;20053;-79
2024/01/20 10:10:49;;;;;;;34.20;20.60;;;;;;;0.22;100.00;102576.53;5001859;28;20084;-79
2024/01/20 10:13:18;;;;;;;40.97;22.33;;;;;;;0.25;100.00;102571.56;5004647;28;20494;-78
2024/01/20 10:15:46;;;;;;;40.58;21.17;;;;;;;0.27;100.00;102570.00;4998968;28;20045;-78
2024/01/20 10:18:13;;;;;;;36.38;21.20;;;;;;;0.30;100.00;102577.06;4976846;28;20068;-79
2024/01/20 10:20:41;;;;;;;33.33;20.23;;;;;;;0.32;100.00;102573.81;5000614;28;20042;-79
2024/01/20 10:23:09;;;;;;;37.97;20.42;;;;;;;0.36;100.00;102569.78;5005862;28;20498;-79
2024/01/20 10:25:36;;;;;;;31.48;20.35;;;;;;;0.39;100.00;102578.63;5019094;28;20532;-79
2024/01/20 10:28:04;;;;;;;36.40;19.48;;;;;;;0.43;100.00;102574.56;4999435;28;20046;-79
2024/01/20 10:30:32;;;;;;;33.05;19.63;;;;;;;0.46;100.00;102572.22;5000736;28;20053;-79
2024/01/20 10:33:00;;;;;;;37.67;21.25;;;;;;;0.50;100.00;102570.75;4958341;28;20053;-79
2024/01/20 10:35:37;;;;;;;33.88;20.65;;;;;;;0.51;100.00;102562.16;5004040;28;20045;-78
2024/01/20 10:38:11;;;;;;;31.13;17.98;;;;;;;0.52;100.00;102558.78;4999529;28;20058;-79
2024/01/20 10:40:41;;;;;;;33.88;19.88;;;;;;;0.54;100.00;102562.38;5014615;28;20057;-79
2024/01/20 10:43:13;;;;;;;36.30;20.20;;;;;;;0.58;100.00;102567.88;5021775;28;20041;-79
2024/01/20 10:45:51;;;;;;;31.05;18.00;;;;;;;0.61;100.00;102562.03;5011840;28;20144;-79
2024/01/20 10:48:24;;;;;;;37.67;19.63;;;;;;;0.64;100.00;102569.13;4981322;28;20056;-79
2024/01/20 10:51:00;;;;;;;32.80;18.17;;;;;;;0.64;100.00;102562.22;5012213;28;20064;-79
2024/01/20 10:53:28;;;;;;;32.78;18.45;;;;;;;0.65;100.00;102574.44;4991261;28;20049;-79
2024/01/20 10:55:58;;;;;;;32.55;18.30;;;;;;;0.67;100.00;102565.06;5009109;28;20058;-79
2024/01/20 10:58:43;;;;;;;34.45;18.85;;;;;;;0.69;100.00;102568.66;5027232;28;20053;-78
2024/01/20 11:01:12;;;;;;;34.40;18.55;;;;;;;0.73;100.00;102565.47;4989677;28;20049;-79
2024/01/20 11:03:40;;;;;;;29.60;17.48;;;;;;;0.74;100.00;102577.69;5027093;28;20402;-78
2024/01/20 11:06:21;;;;;;;35.72;18.63;;;;;;;0.77;100.00;102572.69;4969266;28;20399;-79
2024/01/20 11:08:51;;;;;;;36.95;17.10;;;;;;;0.81;100.00;102573.81;5010844;28;20053;-79
2024/01/20 11:11:19;;;;;;;33.65;18.27;;;;;;;0.85;100.00;102574.94;5010372;28;20045;-78